sensor_id;sensor_type;location;lat;lon;timestamp;pressure;altitude;pressure_sealevel;temperature;humidity
61035;BME280;46916;40.564;-7.958;2023-04-01T00:00:55;98247.63;;;13.74;67.40
61035;BME280;46916;40.564;-7.958;2023-04-01T00:02:56;98245.53;;;13.68;66.87
61035;BME280;46916;40.564;-7.958;2023-04-01T00:04:57;98241.75;;;13.60;67.19
61035;BME280;46916;40.564;-7.958;2023-04-01T00:06:58;98253.25;;;13.59;67.50
61035;BME280;46916;40.564;-7.958;2023-04-01T00:09:00;98254.31;;;13.57;67.61
61035;BME280;46916;40.564;-7.958;2023-04-01T00:11:01;98257.94;;;13.56;67.95
61035;BME280;46916;40.564;-7.958;2023-04-01T00:13:02;98258.31;;;13.51;67.82
61035;BME280;46916;40.564;-7.958;2023-04-01T00:15:06;98253.09;;;13.40;68.13
61035;BME280;46916;40.564;-7.958;2023-04-01T00:17:07;98254.44;;;13.34;68.20
61035;BME280;46916;40.564;-7.958;2023-04-01T00:19:08;98255.28;;;13.35;68.28
61035;BME280;46916;40.564;-7.958;2023-04-01T00:21:09;98252.91;;;13.32;68.53
61035;BME280;46916;40.564;-7.958;2023-04-01T00:23:09;98269.38;;;13.34;68.58
61035;BME280;46916;40.564;-7.958;2023-04-01T00:25:10;98272.75;;;13.36;68.77
61035;BME280;46916;40.564;-7.958;2023-04-01T00:27:11;98272.59;;;13.37;68.70
61035;BME280;46916;40.564;-7.958;2023-04-01T00:29:12;98265.81;;;13.35;68.60
61035;BME280;46916;40.564;-7.958;2023-04-01T00:31:13;98272.00;;;13.34;68.41
61035;BME280;46916;40.564;-7.958;2023-04-01T00:33:15;98273.22;;;13.30;68.54
61035;BME280;46916;40.564;-7.958;2023-04-01T00:35:16;98281.41;;;13.27;68.46
61035;BME280;46916;40.564;-7.958;2023-04-01T00:37:18;98276.97;;;13.27;68.44
61035;BME280;46916;40.564;-7.958;2023-04-01T00:39:22;98258.41;;;13.29;68.34
61035;BME280;46916;40.564;-7.958;2023-04-01T00:41:23;98250.53;;;13.29;68.73
61035;BME280;46916;40.564;-7.958;2023-04-01T00:43:23;98256.38;;;13.32;68.56
61035;BME280;46916;40.564;-7.958;2023-04-01T00:45:26;98257.06;;;13.34;68.59
61035;BME280;46916;40.564;-7.958;2023-04-01T00:47:27;98263.88;;;13.37;68.96
61035;BME280;46916;40.564;-7.958;2023-04-01T00:49:43;98265.53;;;13.38;69.32
61035;BME280;46916;40.564;-7.958;2023-04-01T00:51:46;98253.34;;;13.37;69.46
61035;BME280;46916;40.564;-7.958;2023-04-01T00:53:50;98255.00;;;13.38;69.41
61035;BME280;46916;40.564;-7.958;2023-04-01T00:58:55;98254.69;;;13.31;69.90
61035;BME280;46916;40.564;-7.958;2023-04-01T01:00:58;98254.69;;;13.31;69.89
61035;BME280;46916;40.564;-7.958;2023-04-01T01:02:59;98255.53;;;13.32;69.97
61035;BME280;46916;40.564;-7.958;2023-04-01T01:05:00;98240.00;;;13.29;69.97
61035;BME280;46916;40.564;-7.958;2023-04-01T01:09:38;98228.66;;;13.28;69.81
61035;BME280;46916;40.564;-7.958;2023-04-01T01:11:51;98224.22;;;13.29;69.87
61035;BME280;46916;40.564;-7.958;2023-04-01T01:14:01;98219.91;;;13.28;69.88
61035;BME280;46916;40.564;-7.958;2023-04-01T01:18:29;98204.88;;;13.19;70.35
61035;BME280;46916;40.564;-7.958;2023-04-01T01:31:12;98210.75;;;13.11;71.12
61035;BME280;46916;40.564;-7.958;2023-04-01T01:35:38;98217.31;;;13.17;72.02
61035;BME280;46916;40.564;-7.958;2023-04-01T01:37:51;98206.66;;;13.18;73.03
61035;BME280;46916;40.564;-7.958;2023-04-01T01:39:56;98222.19;;;13.21;73.46
61035;BME280;46916;40.564;-7.958;2023-04-01T01:42:02;98226.41;;;13.24;75.10
61035;BME280;46916;40.564;-7.958;2023-04-01T01:44:06;98218.38;;;13.25;76.31
61035;BME280;46916;40.564;-7.958;2023-04-01T01:46:12;98212.13;;;13.26;75.45
61035;BME280;46916;40.564;-7.958;2023-04-01T01:48:15;98221.34;;;13.21;77.81
61035;BME280;46916;40.564;-7.958;2023-04-01T01:50:17;98210.81;;;13.21;77.05
61035;BME280;46916;40.564;-7.958;2023-04-01T01:52:18;98213.59;;;13.19;77.22
61035;BME280;46916;40.564;-7.958;2023-04-01T01:54:19;98208.44;;;13.18;77.27
61035;BME280;46916;40.564;-7.958;2023-04-01T01:56:23;98220.91;;;13.16;77.47
61035;BME280;46916;40.564;-7.958;2023-04-01T01:58:28;98216.63;;;13.14;77.73
61035;BME280;46916;40.564;-7.958;2023-04-01T02:00:32;98219.94;;;13.17;77.79
61035;BME280;46916;40.564;-7.958;2023-04-01T02:02:34;98222.44;;;13.18;78.14
61035;BME280;46916;40.564;-7.958;2023-04-01T02:04:39;98220.53;;;13.20;78.26
61035;BME280;46916;40.564;-7.958;2023-04-01T02:06:46;98212.75;;;13.19;78.23
61035;BME280;46916;40.564;-7.958;2023-04-01T02:08:54;98199.72;;;13.17;78.30
61035;BME280;46916;40.564;-7.958;2023-04-01T02:11:07;98201.53;;;13.17;79.00
61035;BME280;46916;40.564;-7.958;2023-04-01T02:13:22;98199.72;;;13.17;80.71
61035;BME280;46916;40.564;-7.958;2023-04-01T02:15:28;98205.81;;;13.18;80.39
61035;BME280;46916;40.564;-7.958;2023-04-01T02:17:33;98196.13;;;13.18;81.90
61035;BME280;46916;40.564;-7.958;2023-04-01T02:19:56;98199.47;;;13.20;81.73
61035;BME280;46916;40.564;-7.958;2023-04-01T02:22:01;98198.75;;;13.18;81.19
61035;BME280;46916;40.564;-7.958;2023-04-01T02:24:06;98206.91;;;13.15;81.13
61035;BME280;46916;40.564;-7.958;2023-04-01T02:26:09;98205.38;;;13.12;81.31
61035;BME280;46916;40.564;-7.958;2023-04-01T02:28:12;98201.19;;;13.10;81.46
61035;BME280;46916;40.564;-7.958;2023-04-01T02:30:17;98196.91;;;13.09;81.55
61035;BME280;46916;40.564;-7.958;2023-04-01T02:32:19;98182.22;;;13.06;82.69
61035;BME280;46916;40.564;-7.958;2023-04-01T02:34:22;98180.28;;;13.08;82.27
61035;BME280;46916;40.564;-7.958;2023-04-01T02:36:24;98182.22;;;13.06;82.79
61035;BME280;46916;40.564;-7.958;2023-04-01T02:38:26;98187.47;;;13.06;82.75
61035;BME280;46916;40.564;-7.958;2023-04-01T02:40:26;98184.13;;;13.04;83.10
61035;BME280;46916;40.564;-7.958;2023-04-01T02:42:27;98183.31;;;13.04;82.93
61035;BME280;46916;40.564;-7.958;2023-04-01T02:44:28;98187.84;;;13.02;83.37
61035;BME280;46916;40.564;-7.958;2023-04-01T02:46:29;98194.78;;;13.03;83.41
61035;BME280;46916;40.564;-7.958;2023-04-01T02:48:29;98187.84;;;13.02;83.42
61035;BME280;46916;40.564;-7.958;2023-04-01T02:50:30;98183.69;;;12.99;83.55
61035;BME280;46916;40.564;-7.958;2023-04-01T02:52:31;98191.44;;;13.01;84.96
61035;BME280;46916;40.564;-7.958;2023-04-01T02:54:35;98186.91;;;13.03;85.08
61035;BME280;46916;40.564;-7.958;2023-04-01T02:56:35;98188.41;;;13.05;84.95
61035;BME280;46916;40.564;-7.958;2023-04-01T02:58:36;98191.19;;;13.04;84.89
61035;BME280;46916;40.564;-7.958;2023-04-01T03:00:37;98184.38;;;13.01;84.13
61035;BME280;46916;40.564;-7.958;2023-04-01T03:02:38;98176.28;;;12.93;83.98
61035;BME280;46916;40.564;-7.958;2023-04-01T03:04:39;98173.44;;;12.85;84.10
61035;BME280;46916;40.564;-7.958;2023-04-01T03:06:40;98171.19;;;12.80;84.18
61035;BME280;46916;40.564;-7.958;2023-04-01T03:08:41;98177.91;;;12.73;84.28
61035;BME280;46916;40.564;-7.958;2023-04-01T03:10:43;98181.41;;;12.74;84.28
61035;BME280;46916;40.564;-7.958;2023-04-01T03:12:44;98173.25;;;12.77;84.17
61035;BME280;46916;40.564;-7.958;2023-04-01T03:14:44;98167.28;;;12.75;84.36
61035;BME280;46916;40.564;-7.958;2023-04-01T03:16:45;98178.63;;;12.75;84.63
61035;BME280;46916;40.564;-7.958;2023-04-01T03:18:46;98174.72;;;12.70;84.86
61035;BME280;46916;40.564;-7.958;2023-04-01T03:20:47;98179.13;;;12.69;85.13
61035;BME280;46916;40.564;-7.958;2023-04-01T03:22:47;98170.16;;;12.72;85.29
61035;BME280;46916;40.564;-7.958;2023-04-01T03:24:48;98156.78;;;12.75;85.15
61035;BME280;46916;40.564;-7.958;2023-04-01T03:26:49;98160.94;;;12.77;85.18
61035;BME280;46916;40.564;-7.958;2023-04-01T03:28:50;98165.13;;;12.80;85.17
61035;BME280;46916;40.564;-7.958;2023-04-01T03:30:51;98162.34;;;12.81;85.04
61035;BME280;46916;40.564;-7.958;2023-04-01T03:32:52;98155.19;;;12.83;84.61
61035;BME280;46916;40.564;-7.958;2023-04-01T03:34:53;98153.38;;;12.84;84.55
61035;BME280;46916;40.564;-7.958;2023-04-01T03:36:53;98154.22;;;12.84;84.63
61035;BME280;46916;40.564;-7.958;2023-04-01T03:38:54;98151.72;;;12.83;84.96
61035;BME280;46916;40.564;-7.958;2023-04-01T03:41:05;98153.25;;;12.85;85.55
61035;BME280;46916;40.564;-7.958;2023-04-01T03:43:07;98155.63;;;12.88;86.19
61035;BME280;46916;40.564;-7.958;2023-04-01T03:45:10;98153.59;;;12.92;86.99
61035;BME280;46916;40.564;-7.958;2023-04-01T03:47:12;98153.34;;;12.95;86.42
61035;BME280;46916;40.564;-7.958;2023-04-01T03:49:13;98146.28;;;12.96;86.47
61035;BME280;46916;40.564;-7.958;2023-04-01T03:51:13;98139.09;;;12.98;86.57
61035;BME280;46916;40.564;-7.958;2023-04-01T03:53:15;98129.44;;;12.98;85.81
61035;BME280;46916;40.564;-7.958;2023-04-01T03:55:18;98119.16;;;12.95;85.59
61035;BME280;46916;40.564;-7.958;2023-04-01T03:57:19;98119.66;;;12.89;85.86
61035;BME280;46916;40.564;-7.958;2023-04-01T03:59:19;98118.97;;;12.87;85.97
61035;BME280;46916;40.564;-7.958;2023-04-01T04:01:21;98127.47;;;12.79;85.86
61035;BME280;46916;40.564;-7.958;2023-04-01T04:03:25;98119.41;;;12.71;86.18
61035;BME280;46916;40.564;-7.958;2023-04-01T04:05:26;98122.66;;;12.63;86.64
61035;BME280;46916;40.564;-7.958;2023-04-01T04:07:27;98117.63;;;12.60;86.58
61035;BME280;46916;40.564;-7.958;2023-04-01T04:09:35;98123.03;;;12.59;86.85
61035;BME280;46916;40.564;-7.958;2023-04-01T04:11:35;98127.31;;;12.60;86.92
61035;BME280;46916;40.564;-7.958;2023-04-01T04:13:36;98120.75;;;12.66;86.77
61035;BME280;46916;40.564;-7.958;2023-04-01T04:15:38;98124.06;;;12.68;86.32
61035;BME280;46916;40.564;-7.958;2023-04-01T04:17:40;98121.19;;;12.71;86.45
61035;BME280;46916;40.564;-7.958;2023-04-01T04:19:40;98124.28;;;12.76;86.40
61035;BME280;46916;40.564;-7.958;2023-04-01T04:21:42;98119.75;;;12.78;86.32
61035;BME280;46916;40.564;-7.958;2023-04-01T04:23:43;98119.47;;;12.81;85.62
61035;BME280;46916;40.564;-7.958;2023-04-01T04:26:02;98123.19;;;12.78;85.61
61035;BME280;46916;40.564;-7.958;2023-04-01T04:28:03;98132.03;;;12.77;85.44
61035;BME280;46916;40.564;-7.958;2023-04-01T04:30:05;98128.44;;;12.78;85.45
61035;BME280;46916;40.564;-7.958;2023-04-01T04:32:07;98131.91;;;12.79;85.09
61035;BME280;46916;40.564;-7.958;2023-04-01T04:34:08;98138.00;;;12.79;85.10
61035;BME280;46916;40.564;-7.958;2023-04-01T04:36:10;98140.75;;;12.78;84.68
61035;BME280;46916;40.564;-7.958;2023-04-01T04:38:10;98130.25;;;12.78;84.69
61035;BME280;46916;40.564;-7.958;2023-04-01T04:40:12;98131.47;;;12.74;84.69
61035;BME280;46916;40.564;-7.958;2023-04-01T04:42:13;98123.56;;;12.74;84.68
61035;BME280;46916;40.564;-7.958;2023-04-01T04:44:14;98103.50;;;12.73;84.72
61035;BME280;46916;40.564;-7.958;2023-04-01T04:46:14;98099.78;;;12.75;84.91
61035;BME280;46916;40.564;-7.958;2023-04-01T04:48:16;98103.97;;;12.78;85.26
61035;BME280;46916;40.564;-7.958;2023-04-01T04:50:19;98096.63;;;12.81;85.58
61035;BME280;46916;40.564;-7.958;2023-04-01T04:52:20;98107.72;;;12.85;85.71
61035;BME280;46916;40.564;-7.958;2023-04-01T04:54:21;98107.72;;;12.85;86.63
61035;BME280;46916;40.564;-7.958;2023-04-01T04:56:28;98107.88;;;12.83;87.13
61035;BME280;46916;40.564;-7.958;2023-04-01T04:58:39;98106.06;;;12.84;86.53
61035;BME280;46916;40.564;-7.958;2023-04-01T05:00:41;98110.63;;;12.82;86.79
61035;BME280;46916;40.564;-7.958;2023-04-01T05:02:46;98101.06;;;12.81;86.32
61035;BME280;46916;40.564;-7.958;2023-04-01T05:04:46;98098.81;;;12.76;86.79
61035;BME280;46916;40.564;-7.958;2023-04-01T05:06:47;98097.03;;;12.77;86.62
61035;BME280;46916;40.564;-7.958;2023-04-01T05:08:48;98100.75;;;12.74;87.00
61035;BME280;46916;40.564;-7.958;2023-04-01T05:10:49;98108.63;;;12.74;86.93
61035;BME280;46916;40.564;-7.958;2023-04-01T05:12:50;98103.97;;;12.78;87.06
61035;BME280;46916;40.564;-7.958;2023-04-01T05:14:54;98100.94;;;12.82;86.89
61035;BME280;46916;40.564;-7.958;2023-04-01T05:16:55;98111.19;;;12.85;86.84
61035;BME280;46916;40.564;-7.958;2023-04-01T05:18:56;98118.00;;;12.88;87.73
61035;BME280;46916;40.564;-7.958;2023-04-01T05:20:57;98119.56;;;12.91;87.47
61035;BME280;46916;40.564;-7.958;2023-04-01T05:22:58;98121.22;;;12.92;87.42
61035;BME280;46916;40.564;-7.958;2023-04-01T05:24:59;98126.22;;;12.95;87.36
61035;BME280;46916;40.564;-7.958;2023-04-01T05:27:01;98131.47;;;12.95;86.99
61035;BME280;46916;40.564;-7.958;2023-04-01T05:29:04;98132.31;;;12.95;87.01
61035;BME280;46916;40.564;-7.958;2023-04-01T05:31:06;98139.22;;;12.96;86.89
61035;BME280;46916;40.564;-7.958;2023-04-01T05:33:15;98132.16;;;12.97;87.59
61035;BME280;46916;40.564;-7.958;2023-04-01T05:35:16;98140.06;;;12.97;87.26
61035;BME280;46916;40.564;-7.958;2023-04-01T05:37:17;98151.31;;;12.99;86.95
61035;BME280;46916;40.564;-7.958;2023-04-01T05:39:17;98159.06;;;13.00;87.16
61035;BME280;46916;40.564;-7.958;2023-04-01T05:41:19;98148.66;;;12.99;87.01
61035;BME280;46916;40.564;-7.958;2023-04-01T05:43:20;98143.41;;;12.99;86.90
61035;BME280;46916;40.564;-7.958;2023-04-01T05:45:23;98127.75;;;12.97;86.97
61035;BME280;46916;40.564;-7.958;2023-04-01T05:47:29;98134.94;;;12.95;86.69
61035;BME280;46916;40.564;-7.958;2023-04-01T05:49:30;98146.28;;;12.96;86.59
61035;BME280;46916;40.564;-7.958;2023-04-01T05:51:31;98147.50;;;12.92;86.59
61035;BME280;46916;40.564;-7.958;2023-04-01T05:53:32;98147.63;;;12.90;86.42
61035;BME280;46916;40.564;-7.958;2023-04-01T05:55:35;98150.28;;;12.90;86.52
61035;BME280;46916;40.564;-7.958;2023-04-01T05:57:36;98139.75;;;12.90;86.25
61035;BME280;46916;40.564;-7.958;2023-04-01T05:59:38;98148.47;;;12.91;85.97
61035;BME280;46916;40.564;-7.958;2023-04-01T06:01:39;98141.91;;;12.85;86.15
61035;BME280;46916;40.564;-7.958;2023-04-01T06:03:40;98145.06;;;12.79;86.23
61035;BME280;46916;40.564;-7.958;2023-04-01T06:05:43;98156.53;;;12.78;86.32
61035;BME280;46916;40.564;-7.958;2023-04-01T06:07:43;98154.00;;;12.76;86.49
61035;BME280;46916;40.564;-7.958;2023-04-01T06:09:45;98154.00;;;12.76;86.30
61035;BME280;46916;40.564;-7.958;2023-04-01T06:14:32;98158.88;;;12.81;86.48
61035;BME280;46916;40.564;-7.958;2023-04-01T06:26:24;98153.91;;;12.78;86.63
61035;BME280;46916;40.564;-7.958;2023-04-01T06:30:44;98154.75;;;12.78;86.49
61035;BME280;46916;40.564;-7.958;2023-04-01T06:37:40;98155.69;;;12.77;86.29
61035;BME280;46916;40.564;-7.958;2023-04-01T06:39:49;98163.69;;;12.76;86.53
61035;BME280;46916;40.564;-7.958;2023-04-01T06:44:46;98163.94;;;12.73;86.22
61035;BME280;46916;40.564;-7.958;2023-04-01T06:49:58;98170.75;;;12.75;86.51
61035;BME280;46916;40.564;-7.958;2023-04-01T06:52:50;98175.88;;;12.77;86.85
61035;BME280;46916;40.564;-7.958;2023-04-01T06:55:42;98167.75;;;12.80;86.33
61035;BME280;46916;40.564;-7.958;2023-04-01T06:57:51;98166.78;;;12.81;86.83
61035;BME280;46916;40.564;-7.958;2023-04-01T06:59:55;98171.94;;;12.82;86.85
61035;BME280;46916;40.564;-7.958;2023-04-01T07:02:03;98170.97;;;12.83;86.84
61035;BME280;46916;40.564;-7.958;2023-04-01T07:04:14;98169.88;;;12.86;86.82
61035;BME280;46916;40.564;-7.958;2023-04-01T07:06:36;98180.25;;;12.87;87.17
61035;BME280;46916;40.564;-7.958;2023-04-01T07:08:40;98171.41;;;12.88;87.09
61035;BME280;46916;40.564;-7.958;2023-04-01T07:10:58;98182.75;;;12.89;87.31
61035;BME280;46916;40.564;-7.958;2023-04-01T07:13:35;98172.00;;;12.92;87.46
61035;BME280;46916;40.564;-7.958;2023-04-01T07:15:56;98172.81;;;12.93;87.41
61035;BME280;46916;40.564;-7.958;2023-04-01T07:18:46;98168.53;;;12.92;87.95
61035;BME280;46916;40.564;-7.958;2023-04-01T07:20:45;98156.94;;;12.94;87.81
61035;BME280;46916;40.564;-7.958;2023-04-01T07:22:52;98167.94;;;12.88;88.32
61035;BME280;46916;40.564;-7.958;2023-04-01T07:25:07;98169.88;;;12.86;88.26
61035;BME280;46916;40.564;-7.958;2023-04-01T07:27:13;98168.09;;;12.86;88.51
61035;BME280;46916;40.564;-7.958;2023-04-01T07:29:15;98170.72;;;12.86;88.00
61035;BME280;46916;40.564;-7.958;2023-04-01T07:36:18;98174.03;;;12.88;88.33
61035;BME280;46916;40.564;-7.958;2023-04-01T07:41:38;98172.25;;;12.89;88.56
61035;BME280;46916;40.564;-7.958;2023-04-01T07:48:20;98169.59;;;12.89;88.42
61035;BME280;46916;40.564;-7.958;2023-04-01T07:50:31;98175.97;;;12.86;88.18
61035;BME280;46916;40.564;-7.958;2023-04-01T07:55:18;98174.22;;;12.76;89.11
61035;BME280;46916;40.564;-7.958;2023-04-01T07:57:38;98176.16;;;12.74;89.56
61035;BME280;46916;40.564;-7.958;2023-04-01T08:07:15;98184.34;;;12.80;89.08
61035;BME280;46916;40.564;-7.958;2023-04-01T08:09:45;98182.53;;;12.81;89.26
61035;BME280;46916;40.564;-7.958;2023-04-01T08:14:46;98177.03;;;12.84;89.02
61035;BME280;46916;40.564;-7.958;2023-04-01T08:21:43;98183.47;;;12.91;89.18
61035;BME280;46916;40.564;-7.958;2023-04-01T08:23:48;98179.88;;;12.92;89.49
61035;BME280;46916;40.564;-7.958;2023-04-01T08:28:10;98174.63;;;12.92;89.44
61035;BME280;46916;40.564;-7.958;2023-04-01T08:30:22;98185.72;;;12.96;90.39
61035;BME280;46916;40.564;-7.958;2023-04-01T08:32:34;98185.47;;;12.99;91.57
61035;BME280;46916;40.564;-7.958;2023-04-01T08:34:39;98176.25;;;13.04;90.73
61035;BME280;46916;40.564;-7.958;2023-04-01T08:36:52;98177.78;;;13.07;90.73
61035;BME280;46916;40.564;-7.958;2023-04-01T08:39:06;98170.72;;;13.07;90.28
61035;BME280;46916;40.564;-7.958;2023-04-01T08:46:46;98176.84;;;13.29;89.89
61035;BME280;46916;40.564;-7.958;2023-04-01T08:48:33;98182.34;;;13.47;89.59
61035;BME280;46916;40.564;-7.958;2023-04-01T08:53:06;98180.50;;;13.58;88.61
61035;BME280;46916;40.564;-7.958;2023-04-01T09:02:51;98167.25;;;13.70;88.01
61035;BME280;46916;40.564;-7.958;2023-04-01T09:19:17;98162.13;;;13.68;89.22
61035;BME280;46916;40.564;-7.958;2023-04-01T09:26:15;98167.25;;;13.70;90.34
61035;BME280;46916;40.564;-7.958;2023-04-01T09:30:48;98161.31;;;13.68;89.54
61035;BME280;46916;40.564;-7.958;2023-04-01T09:35:45;98174.66;;;13.76;89.38
61035;BME280;46916;40.564;-7.958;2023-04-01T09:40:16;98177.44;;;13.84;88.91
61035;BME280;46916;40.564;-7.958;2023-04-01T09:52:48;98182.78;;;14.03;88.45
61035;BME280;46916;40.564;-7.958;2023-04-01T10:05:17;98173.53;;;14.09;88.26
61035;BME280;46916;40.564;-7.958;2023-04-01T10:10:30;98178.47;;;14.02;88.42
61035;BME280;46916;40.564;-7.958;2023-04-01T10:19:49;98178.78;;;14.09;88.79
61035;BME280;46916;40.564;-7.958;2023-04-01T10:24:40;98184.78;;;14.21;88.18
61035;BME280;46916;40.564;-7.958;2023-04-01T10:36:41;98185.94;;;14.37;88.23
61035;BME280;46916;40.564;-7.958;2023-04-01T10:40:56;98190.81;;;14.42;87.54
61035;BME280;46916;40.564;-7.958;2023-04-01T11:01:35;98181.25;;;14.41;88.75
61035;BME280;46916;40.564;-7.958;2023-04-01T11:31:58;98149.84;;;14.19;89.98
61035;BME280;46916;40.564;-7.958;2023-04-01T11:41:25;98158.97;;;14.15;91.23
61035;BME280;46916;40.564;-7.958;2023-04-01T11:44:10;98164.66;;;14.20;90.98
61035;BME280;46916;40.564;-7.958;2023-04-01T11:47:02;98160.69;;;14.25;90.95
61035;BME280;46916;40.564;-7.958;2023-04-01T11:49:21;98165.13;;;14.25;90.57
61035;BME280;46916;40.564;-7.958;2023-04-01T11:51:54;98159.41;;;14.20;90.42
61035;BME280;46916;40.564;-7.958;2023-04-01T12:05:19;98143.50;;;13.91;91.51
61035;BME280;46916;40.564;-7.958;2023-04-01T12:08:04;98135.50;;;13.92;91.68
61035;BME280;46916;40.564;-7.958;2023-04-01T12:11:00;98141.59;;;13.93;92.63
61035;BME280;46916;40.564;-7.958;2023-04-01T12:14:58;98136.19;;;13.94;93.60
61035;BME280;46916;40.564;-7.958;2023-04-01T12:17:07;98132.00;;;13.92;93.45
61035;BME280;46916;40.564;-7.958;2023-04-01T12:21:34;98127.31;;;13.95;93.55
61035;BME280;46916;40.564;-7.958;2023-04-01T12:28:44;98124.56;;;14.06;93.64
61035;BME280;46916;40.564;-7.958;2023-04-01T12:35:36;98111.97;;;14.10;93.95
61035;BME280;46916;40.564;-7.958;2023-04-01T12:49:02;98099.78;;;14.09;95.97
61035;BME280;46916;40.564;-7.958;2023-04-01T12:51:19;98104.06;;;14.10;94.85
61035;BME280;46916;40.564;-7.958;2023-04-01T12:55:49;98107.94;;;14.06;94.42
61035;BME280;46916;40.564;-7.958;2023-04-01T13:00:46;98097.97;;;14.09;94.49
61035;BME280;46916;40.564;-7.958;2023-04-01T13:03:02;98109.91;;;14.13;95.00
61035;BME280;46916;40.564;-7.958;2023-04-01T13:07:35;98085.78;;;14.18;96.71
61035;BME280;46916;40.564;-7.958;2023-04-01T13:09:56;98105.75;;;14.21;95.56
61035;BME280;46916;40.564;-7.958;2023-04-01T13:14:20;98103.81;;;14.23;95.20
61035;BME280;46916;40.564;-7.958;2023-04-01T13:16:31;98092.44;;;14.22;95.61
61035;BME280;46916;40.564;-7.958;2023-04-01T13:25:24;98083.72;;;14.22;96.94
61035;BME280;46916;40.564;-7.958;2023-04-01T13:27:38;98081.06;;;14.22;96.74
61035;BME280;46916;40.564;-7.958;2023-04-01T13:34:25;98074.28;;;14.29;97.00
61035;BME280;46916;40.564;-7.958;2023-04-01T13:48:46;98063.19;;;14.35;97.96
61035;BME280;46916;40.564;-7.958;2023-04-01T14:07:33;98050.59;;;14.29;98.96
61035;BME280;46916;40.564;-7.958;2023-04-01T14:28:53;98042.22;;;14.24;99.40
61035;BME280;46916;40.564;-7.958;2023-04-01T14:31:29;98049.72;;;14.28;98.97
61035;BME280;46916;40.564;-7.958;2023-04-01T14:33:57;98037.09;;;14.32;99.04
61035;BME280;46916;40.564;-7.958;2023-04-01T14:38:40;98021.19;;;14.33;99.44
61035;BME280;46916;40.564;-7.958;2023-04-01T14:43:48;98023.00;;;14.33;99.47
61035;BME280;46916;40.564;-7.958;2023-04-01T14:48:34;98002.44;;;14.36;98.72
61035;BME280;46916;40.564;-7.958;2023-04-01T14:50:49;98016.16;;;14.40;99.08
61035;BME280;46916;40.564;-7.958;2023-04-01T14:57:28;98009.78;;;14.43;100.00
61035;BME280;46916;40.564;-7.958;2023-04-01T14:59:29;98010.47;;;14.45;100.00
61035;BME280;46916;40.564;-7.958;2023-04-01T15:08:29;98006.22;;;14.53;100.00
61035;BME280;46916;40.564;-7.958;2023-04-01T15:15:11;98017.28;;;14.47;100.00
61035;BME280;46916;40.564;-7.958;2023-04-01T15:37:08;97991.66;;;14.49;100.00
61035;BME280;46916;40.564;-7.958;2023-04-01T15:39:14;97986.09;;;14.52;100.00
61035;BME280;46916;40.564;-7.958;2023-04-01T15:41:23;97990.09;;;14.56;100.00
61035;BME280;46916;40.564;-7.958;2023-04-01T15:55:25;97997.00;;;14.77;100.00
61035;BME280;46916;40.564;-7.958;2023-04-01T15:57:33;97991.72;;;14.77;100.00
61035;BME280;46916;40.564;-7.958;2023-04-01T16:02:54;97994.38;;;14.77;100.00
61035;BME280;46916;40.564;-7.958;2023-04-01T16:07:02;97983.97;;;14.75;100.00
61035;BME280;46916;40.564;-7.958;2023-04-01T16:09:43;97983.16;;;14.75;100.00
61035;BME280;46916;40.564;-7.958;2023-04-01T16:12:47;97988.25;;;14.76;100.00
61035;BME280;46916;40.564;-7.958;2023-04-01T16:23:40;97977.00;;;14.84;100.00
61035;BME280;46916;40.564;-7.958;2023-04-01T16:25:49;97983.25;;;14.83;100.00
61035;BME280;46916;40.564;-7.958;2023-04-01T16:28:03;97985.75;;;14.84;100.00
61035;BME280;46916;40.564;-7.958;2023-04-01T16:30:55;97977.72;;;14.86;100.00
61035;BME280;46916;40.564;-7.958;2023-04-01T16:40:24;97977.72;;;14.86;100.00
61035;BME280;46916;40.564;-7.958;2023-04-01T16:46:56;97963.81;;;14.84;100.00
61035;BME280;46916;40.564;-7.958;2023-04-01T16:51:15;97976.03;;;14.85;100.00
61035;BME280;46916;40.564;-7.958;2023-04-01T16:55:21;97964.22;;;14.89;100.00
61035;BME280;46916;40.564;-7.958;2023-04-01T17:01:55;97969.16;;;15.02;100.00
61035;BME280;46916;40.564;-7.958;2023-04-01T17:04:13;97969.03;;;15.03;100.00
61035;BME280;46916;40.564;-7.958;2023-04-01T17:17:20;97966.50;;;15.11;100.00
61035;BME280;46916;40.564;-7.958;2023-04-01T17:19:54;97969.16;;;15.11;100.00
61035;BME280;46916;40.564;-7.958;2023-04-01T17:24:38;97974.44;;;15.11;100.00
61035;BME280;46916;40.564;-7.958;2023-04-01T17:26:51;97975.41;;;15.10;100.00
61035;BME280;46916;40.564;-7.958;2023-04-01T17:31:53;97971.91;;;15.10;100.00
61035;BME280;46916;40.564;-7.958;2023-04-01T17:47:57;97975.69;;;15.07;100.00
61035;BME280;46916;40.564;-7.958;2023-04-01T18:00:24;97971.53;;;15.05;100.00
61035;BME280;46916;40.564;-7.958;2023-04-01T18:07:44;97987.50;;;15.03;100.00
61035;BME280;46916;40.564;-7.958;2023-04-01T18:17:17;97991.41;;;14.99;100.00
61035;BME280;46916;40.564;-7.958;2023-04-01T18:22:02;97993.34;;;14.97;100.00
61035;BME280;46916;40.564;-7.958;2023-04-01T18:26:21;97990.31;;;14.92;100.00
61035;BME280;46916;40.564;-7.958;2023-04-01T18:30:29;97993.22;;;14.89;100.00
61035;BME280;46916;40.564;-7.958;2023-04-01T18:32:34;97989.75;;;14.89;100.00
61035;BME280;46916;40.564;-7.958;2023-04-01T18:34:51;97998.81;;;14.86;100.00
61035;BME280;46916;40.564;-7.958;2023-04-01T18:37:00;97991.03;;;14.84;100.00
61035;BME280;46916;40.564;-7.958;2023-04-01T18:39:22;97995.63;;;14.82;100.00
61035;BME280;46916;40.564;-7.958;2023-04-01T18:45:59;98013.66;;;14.77;100.00
61035;BME280;46916;40.564;-7.958;2023-04-01T18:52:42;98009.94;;;14.70;100.00
61035;BME280;46916;40.564;-7.958;2023-04-01T18:57:19;98016.31;;;14.68;100.00
61035;BME280;46916;40.564;-7.958;2023-04-01T18:59:49;98012.16;;;14.65;100.00
61035;BME280;46916;40.564;-7.958;2023-04-01T19:04:12;98028.13;;;14.64;100.00
61035;BME280;46916;40.564;-7.958;2023-04-01T19:09:33;98035.63;;;14.58;100.00
61035;BME280;46916;40.564;-7.958;2023-04-01T19:20:42;98036.44;;;14.59;100.00
61035;BME280;46916;40.564;-7.958;2023-04-01T19:26:03;98037.56;;;14.56;100.00
61035;BME280;46916;40.564;-7.958;2023-04-01T19:27:51;98047.16;;;14.57;100.00
61035;BME280;46916;40.564;-7.958;2023-04-01T19:32:30;98041.72;;;14.59;100.00